Hlavní strana
METAR-TAF:

METAR-TAF

Letiště :

Rand Airport

Germiston, Jihoafrická republika

zeměpisná šířka: 26-14-33S, zeměpisná délka: 028-09-04E, výška: 1671 m

Aktuální stav počasí

Zpráva byla vytvořena před 2 hodinami a 53 minutami, v 08:00 UTC
Východoseverovýchodní vítr 9 kt
Teplota 14°C
Vlhkost vzduchu 100%
Tlak 1022 hPa
Viditelnost: 4000 m
Zataženo ve výšce 700 ft
kouřmo

METAR: FAGM 100800Z 07009KT 4000 BR OVC007 14/14 Q1022

Čas: 12:53 (10:53 UTC)


TAF: chybějící

Stav a předpovědi počasí z více než 4 000 letišť (zprávy METAR a TAF).

Červené a žluté tečky na mapě představují dostupné meteorologické stanice.

Když kurzor umístíte na tečku, zobrazí se název stanice.

Pak kliknutím zobrazíte stav a předpověď počasí.

Chcete-li změnit mapu, kliknutím na zelené tlačítko se znaménkem +mapu přiblížíte, kliknutím na zelené tlačítko se znaménkem – mapu oddálíte a kliknutím na zelené šipky přejdete na sousední mapy.


METAR-TAF: